»·PEaware :: ACA650 KBOI-KMFR

ACA650 :: KBOI-KMFR

FLIGHT INFORMATION

Flight Status: Arrived
Operator:
Air Canada
More flights by this operator :: More flights under this callsign
Pilot: Ben W. (5837)
Aircraft: AIRBUS A320
(A320)
More flights by this aircraft type
Origin: KBOI Boise Air Terminal/Gowen
United States
Destination: KMFR Rogue Valley Intl-Medford
United States
More flights between these airports :: More routes between these airports
Route: +BOI3 SAILL BUEEL ACLOB
File this flight plan on PilotEdge
Remarks:
Altitude:
(Current/Filed)
30,000ft
Speed:
(Current/Filed)
415kts
Departed: 24-Feb-18 01:21 PM
Arrived: 24-Feb-18 02:28 PM
Distance/Time
Traveled:
301nm/1:07
Distance/Time
To Go:
Arrived

Flight Plot

Page will automatically refresh every two minutes.

Flight plan parsing failed; only flown route is shown


Map Options




Map Legend


Flown Route
Filed Route
Departure Airport
Arrival Airport
Navaid (VOR, NDB)
Fix

Horizontal Profiles

Position Reports

Time Latitude Longitude Heading Altitude Ground
Speed
24-Feb-18 13:01 43.566682 -116.218871 23 2854ft 0kts
24-Feb-18 13:02 43.566682 -116.218871 23 2854ft 0kts
24-Feb-18 13:03 43.566682 -116.218871 23 2854ft 0kts
24-Feb-18 13:04 43.566682 -116.218871 23 2854ft 0kts
24-Feb-18 13:05 43.566682 -116.218871 23 2854ft 0kts
24-Feb-18 13:06 43.566682 -116.218871 23 2854ft 0kts
24-Feb-18 13:07 43.566682 -116.218871 23 2854ft 0kts
24-Feb-18 13:08 43.566682 -116.218871 23 2854ft 0kts
24-Feb-18 13:09 43.566682 -116.218871 23 2854ft 0kts
24-Feb-18 13:10 43.566682 -116.218871 23 2854ft 0kts
24-Feb-18 13:11 43.566682 -116.218871 23 2854ft 0kts
24-Feb-18 13:12 43.566682 -116.218871 23 2854ft 0kts
24-Feb-18 13:13 43.566682 -116.218871 23 2854ft 0kts
24-Feb-18 13:14 43.566682 -116.218871 23 2854ft 0kts
24-Feb-18 13:15 43.566682 -116.218871 23 2854ft 0kts
24-Feb-18 13:16 43.566408 -116.218947 356 2854ft 2kts
24-Feb-18 13:17 43.565914 -116.218555 302 2855ft 2kts
24-Feb-18 13:18 43.565842 -116.218346 293 2855ft 0kts
24-Feb-18 13:19 43.565842 -116.218346 293 2855ft 0kts
24-Feb-18 13:20 43.565842 -116.218346 293 2855ft 0kts
24-Feb-18 13:21 43.566105 -116.219159 294 2855ft 7kts
24-Feb-18 13:22 43.566263 -116.220103 236 2854ft 0kts
24-Feb-18 13:23 43.566623 -116.222717 295 2852ft 18kts
24-Feb-18 13:24 43.568270 -116.227548 295 2845ft 19kts
24-Feb-18 13:25 43.570915 -116.235639 252 2831ft 2kts
24-Feb-18 13:26 43.570902 -116.235685 247 2831ft 0kts
24-Feb-18 13:27 43.570886 -116.235741 246 2831ft 2kts
24-Feb-18 13:28 43.568832 -116.232739 116 2839ft 67kts
24-Feb-18 13:29 43.550772 -116.180862 117 5265ft 179kts
24-Feb-18 13:30 43.522359 -116.107990 137 7685ft 258kts
24-Feb-18 13:31 43.455996 -116.127318 223 10885ft 302kts
24-Feb-18 13:32 43.393871 -116.221427 224 13278ft 343kts
24-Feb-18 13:33 43.326617 -116.313431 224 16178ft 349kts
24-Feb-18 13:34 43.285727 -116.427116 282 18177ft 355kts
24-Feb-18 13:35 43.342462 -116.530926 311 21402ft 335kts
24-Feb-18 13:36 43.407085 -116.627779 312 22943ft 353kts
24-Feb-18 13:37 43.472710 -116.725872 312 24623ft 362kts
24-Feb-18 13:38 43.541459 -116.828873 312 26185ft 369kts
24-Feb-18 13:39 43.611454 -116.934093 310 27516ft 379kts
24-Feb-18 13:40 43.684933 -117.044941 311 28375ft 398kts
24-Feb-18 13:41 43.745274 -117.172562 295 29764ft 400kts
24-Feb-18 13:42 43.789058 -117.312055 297 30050ft 386kts
24-Feb-18 13:43 43.831368 -117.447197 297 30045ft 385kts
24-Feb-18 13:44 43.860662 -117.590449 278 30053ft 402kts
24-Feb-18 13:45 43.831761 -117.741685 255 30064ft 430kts
24-Feb-18 13:46 43.781816 -117.895509 256 29995ft 446kts
24-Feb-18 13:47 43.730651 -118.052871 256 30020ft 456kts
24-Feb-18 13:48 43.678252 -118.213103 256 30067ft 459kts
24-Feb-18 13:49 43.625510 -118.373454 256 30066ft 458kts
24-Feb-18 13:50 43.572820 -118.532745 256 30042ft 456kts
24-Feb-18 13:51 43.521928 -118.685682 255 30012ft 456kts
24-Feb-18 13:52 43.468939 -118.843965 255 30004ft 456kts
24-Feb-18 13:53 43.415483 -119.002250 255 30012ft 456kts
24-Feb-18 13:54 43.366996 -119.146724 256 30012ft 455kts
24-Feb-18 13:55 43.313342 -119.304639 255 30012ft 456kts
24-Feb-18 13:56 43.259575 -119.461476 255 30013ft 456kts
24-Feb-18 13:57 43.205499 -119.618451 255 30013ft 455kts
24-Feb-18 13:58 43.153188 -119.769534 255 30011ft 457kts
24-Feb-18 13:59 43.098610 -119.926256 255 30022ft 457kts
24-Feb-18 14:00 43.043822 -120.082699 255 30021ft 457kts
24-Feb-18 14:01 42.989067 -120.238175 255 30056ft 455kts
24-Feb-18 14:02 42.933992 -120.393717 255 30121ft 456kts
24-Feb-18 14:03 42.880323 -120.544413 255 30122ft 455kts
24-Feb-18 14:04 42.827550 -120.691824 254 30104ft 455kts
24-Feb-18 14:05 42.771945 -120.846325 254 30112ft 456kts
24-Feb-18 14:06 42.715842 -121.001331 254 30131ft 457kts
24-Feb-18 14:07 42.661443 -121.150249 255 29755ft 419kts
24-Feb-18 14:08 42.611295 -121.287463 256 28043ft 398kts
24-Feb-18 14:09 42.563992 -121.415952 257 27028ft 360kts
24-Feb-18 14:10 42.520685 -121.533496 257 25482ft 343kts
24-Feb-18 14:11 42.478583 -121.647332 257 24222ft 336kts
24-Feb-18 14:12 42.408242 -121.733038 195 24217ft 414kts
24-Feb-18 14:13 42.292884 -121.734412 195 23969ft 409kts
24-Feb-18 14:14 42.181278 -121.753164 195 22353ft 400kts
24-Feb-18 14:15 42.072526 -121.770830 195 20810ft 390kts
24-Feb-18 14:16 41.971713 -121.801535 233 19247ft 339kts
24-Feb-18 14:17 41.966121 -121.891155 317 17608ft 241kts
24-Feb-18 14:18 42.011569 -121.956704 315 15940ft 240kts
24-Feb-18 14:19 42.056896 -122.021875 314 14297ft 238kts
24-Feb-18 14:20 42.102137 -122.086635 314 12680ft 237kts
24-Feb-18 14:21 42.150177 -122.155292 314 10295ft 270kts
24-Feb-18 14:22 42.198265 -122.224352 314 9876ft 231kts
24-Feb-18 14:23 42.226421 -122.293038 274 9872ft 217kts
24-Feb-18 14:24 42.202746 -122.368115 244 9788ft 223kts
24-Feb-18 14:25 42.171842 -122.437701 241 9052ft 215kts
24-Feb-18 14:26 42.147600 -122.509055 260 8139ft 212kts
24-Feb-18 14:27 42.150652 -122.587890 288 7024ft 217kts
24-Feb-18 14:28 42.181940 -122.655953 310 5849ft 226kts
24-Feb-18 14:29 42.222423 -122.717293 310 4586ft 193kts
24-Feb-18 14:30 42.248468 -122.773951 300 4111ft 167kts
24-Feb-18 14:31 42.276139 -122.815043 320 3252ft 133kts
24-Feb-18 14:32 42.306959 -122.837534 335 2584ft 127kts
24-Feb-18 14:33 42.339646 -122.854527 335 1869ft 125kts
24-Feb-18 14:34 42.370813 -122.871151 337 1323ft 92kts
24-Feb-18 14:35 42.376130 -122.874906 250 1313ft 0kts
24-Feb-18 14:36 42.375966 -122.875201 208 1313ft 5kts
24-Feb-18 14:37 42.372683 -122.873673 159 1318ft 17kts
24-Feb-18 14:38 42.368760 -122.872708 243 1323ft 8kts
24-Feb-18 14:39 42.368577 -122.873275 248 1322ft 0kts
24-Feb-18 14:40 42.368577 -122.873275 248 1322ft 0kts
24-Feb-18 14:41 42.368577 -122.873275 248 1322ft 0kts
24-Feb-18 14:42 42.368577 -122.873275 248 1322ft 0kts
24-Feb-18 14:43 42.368577 -122.873275 248 1322ft 0kts
24-Feb-18 14:44 42.368577 -122.873275 248 1322ft 0kts
24-Feb-18 14:45 42.368577 -122.873275 248 1322ft 0kts
24-Feb-18 14:46 42.368577 -122.873275 248 1322ft 0kts
24-Feb-18 14:47 42.368577 -122.873275 248 1322ft 0kts
24-Feb-18 14:48 42.368577 -122.873275 248 1322ft 0kts

Navigation Log

Ident Type
Flight plan parsing failed, navigation log unavailable